Time;durP1;ratioP1;P1;durP2;ratioP2;P2;SDS_P1;SDS_P2;PMS_P1;PMS_P2;Temp;Humidity;BMP_temperature;BMP_pressure;BME280_temperature;BME280_humidity;BME280_pressure;Samples;Min_cycle;Max_cycle;Signal;HPM_P1;HPM_P2
2023/09/27 00:01:57;;;;;;;11.32;2.38;;;15.30;99.90;;;;;;5072071;28;20131;-47
2023/09/27 00:04:23;;;;;;;5.95;2.00;;;15.30;99.90;;;;;;5072246;28;20090;-44
2023/09/27 00:06:48;;;;;;;9.65;2.38;;;15.50;99.90;;;;;;5072187;28;20099;-44
2023/09/27 00:09:14;;;;;;;10.60;2.95;;;15.30;99.90;;;;;;5072116;28;20669;-46
2023/09/27 00:11:40;;;;;;;8.25;2.22;;;;;;;;;;5071882;28;20071;-47
2023/09/27 00:14:06;;;;;;;9.15;2.45;;;14.70;99.90;;;;;;5072306;28;20415;-56
2023/09/27 00:16:32;;;;;;;8.48;2.20;;;15.30;99.90;;;;;;5071974;28;20149;-63
2023/09/27 00:18:57;;;;;;;9.75;2.40;;;15.40;99.90;;;;;;5071975;28;20025;-59
2023/09/27 00:21:23;;;;;;;10.70;2.60;;;15.40;99.90;;;;;;5071813;28;20384;-59
2023/09/27 00:23:48;;;;;;;7.15;1.85;;;15.40;99.90;;;;;;5071663;28;20059;-52
2023/09/27 00:26:14;;;;;;;7.30;2.00;;;15.40;99.90;;;;;;5071743;28;20071;-59
2023/09/27 00:28:40;;;;;;;8.63;2.10;;;15.40;99.90;;;;;;5071650;28;20032;-50
2023/09/27 00:31:05;;;;;;;9.43;1.88;;;15.60;99.90;;;;;;5071836;28;20093;-59
2023/09/27 00:33:31;;;;;;;5.93;2.00;;;15.40;99.90;;;;;;5071636;28;20033;-56
2023/09/27 00:35:56;;;;;;;9.27;2.42;;;15.10;99.90;;;;;;5071474;28;20040;-52
2023/09/27 00:38:22;;;;;;;6.85;2.03;;;15.30;99.90;;;;;;5071792;28;20112;-61
2023/09/27 00:40:48;;;;;;;6.18;2.42;;;15.30;99.90;;;;;;5070053;28;20532;-59
2023/09/27 00:43:32;;;;;;;6.22;2.33;;;15.20;99.90;;;;;;5071532;28;20024;-55
2023/09/27 00:46:01;;;;;;;3.90;1.73;;;15.20;99.90;;;;;;5071236;28;20031;-57
2023/09/27 00:48:27;;;;;;;4.88;1.85;;;15.00;99.90;;;;;;5071416;28;20119;-55
2023/09/27 00:50:54;;;;;;;6.53;2.03;;;14.90;99.90;;;;;;5071248;28;20429;-60
2023/09/27 00:53:26;;;;;;;3.40;1.73;;;15.80;99.90;;;;;;5071524;28;20103;-57
2023/09/27 00:55:52;;;;;;;5.32;2.20;;;14.90;99.90;;;;;;5070997;28;20433;-57
2023/09/27 00:58:20;;;;;;;6.28;2.40;;;14.90;99.90;;;;;;5071225;28;20040;-48
2023/09/27 01:00:52;;;;;;;7.72;2.03;;;14.80;99.90;;;;;;5070277;28;20523;-50
2023/09/27 01:03:18;;;;;;;8.40;2.05;;;14.80;99.90;;;;;;5071150;28;20020;-54
2023/09/27 01:05:45;;;;;;;11.70;2.58;;;14.70;99.90;;;;;;5071042;28;20115;-55
2023/09/27 01:08:11;;;;;;;5.15;2.08;;;14.70;99.90;;;;;;5070866;28;20012;-52
2023/09/27 01:10:37;;;;;;;7.47;2.25;;;14.70;99.90;;;;;;5070835;28;20100;-59
2023/09/27 01:13:04;;;;;;;8.82;2.67;;;14.70;99.90;;;;;;5070863;28;20025;-49
2023/09/27 01:15:32;;;;;;;9.10;2.47;;;14.70;99.90;;;;;;5070595;28;20535;-50
2023/09/27 01:17:59;;;;;;;12.80;2.58;;;14.70;99.90;;;;;;5070776;28;20020;-50
2023/09/27 01:20:26;;;;;;;8.70;2.28;;;14.70;99.90;;;;;;5070698;28;20047;-50
2023/09/27 01:23:02;;;;;;;7.68;2.20;;;14.70;99.90;;;;;;5070727;28;20122;-59
2023/09/27 01:25:30;;;;;;;9.27;2.63;;;14.70;99.90;;;;;;5070470;28;20476;-48
2023/09/27 01:27:57;;;;;;;7.18;2.20;;;14.30;99.90;;;;;;5070753;28;20452;-57
2023/09/27 01:30:25;;;;;;;6.70;2.13;;;14.70;99.90;;;;;;5070705;28;20145;-53
2023/09/27 01:32:50;;;;;;;8.02;2.67;;;14.70;99.90;;;;;;5070594;28;20016;-43
2023/09/27 01:35:16;;;;;;;6.70;2.40;;;14.70;99.90;;;;;;5070631;28;20028;-59
2023/09/27 01:37:42;;;;;;;5.50;1.83;;;16.40;99.90;;;;;;5070650;28;20015;-63
2023/09/27 01:40:15;;;;;;;7.18;1.95;;;14.70;99.90;;;;;;5070530;28;20024;-55
2023/09/27 01:42:43;;;;;;;6.53;2.25;;;14.70;99.90;;;;;;5070348;28;20042;-53
2023/09/27 01:45:15;;;;;;;8.48;2.30;;;14.70;99.90;;;;;;5070492;28;20060;-59
2023/09/27 01:47:40;;;;;;;10.10;2.38;;;14.70;99.90;;;;;;5070417;28;20100;-57
2023/09/27 01:50:07;;;;;;;7.05;2.28;;;14.70;99.90;;;;;;5070362;28;20471;-56
2023/09/27 01:52:33;;;;;;;6.13;2.75;;;14.80;99.90;;;;;;5070050;28;20029;-53
2023/09/27 01:54:59;;;;;;;4.65;1.88;;;14.80;99.90;;;;;;5070480;28;20112;-57
2023/09/27 01:57:24;;;;;;;8.40;1.98;;;14.70;99.90;;;;;;5070113;28;20031;-50
2023/09/27 01:59:50;;;;;;;8.52;2.10;;;14.60;99.90;;;;;;5070229;28;20087;-56
2023/09/27 02:02:15;;;;;;;9.60;2.05;;;14.60;99.90;;;;;;5070135;28;20048;-57
2023/09/27 02:04:41;;;;;;;6.22;2.33;;;14.40;99.90;;;;;;5070055;28;20434;-51
2023/09/27 02:07:07;;;;;;;15.15;3.28;;;14.40;99.90;;;;;;5070131;28;20477;-56
2023/09/27 02:09:32;;;;;;;8.43;2.10;;;14.40;99.90;;;;;;5070280;28;20106;-50
2023/09/27 02:11:58;;;;;;;9.40;2.22;;;11.70;99.90;;;;;;5070036;28;20473;-57
2023/09/27 02:14:24;;;;;;;5.97;2.15;;;14.30;99.90;;;;;;5073508;28;20024;-58
2023/09/27 02:16:49;;;;;;;10.82;2.83;;;14.40;99.90;;;;;;5073935;28;20477;-57
2023/09/27 02:19:15;;;;;;;9.65;2.17;;;14.30;99.90;;;;;;5074204;28;20028;-60
2023/09/27 02:21:40;;;;;;;7.13;2.53;;;15.30;99.90;;;;;;5073869;28;20040;-53
2023/09/27 02:24:07;;;;;;;6.38;2.63;;;14.40;99.90;;;;;;5072990;28;20146;-50
2023/09/27 02:26:33;;;;;;;9.82;3.20;;;14.40;99.90;;;;;;5074044;28;20515;-55
2023/09/27 02:29:00;;;;;;;7.85;2.53;;;16.90;99.90;;;;;;5073933;28;20025;-59
2023/09/27 02:31:25;;;;;;;12.60;3.10;;;13.40;99.90;;;;;;5074219;28;20028;-56
2023/09/27 02:33:51;;;;;;;7.57;2.15;;;14.50;99.90;;;;;;5073828;28;20020;-53
2023/09/27 02:36:17;;;;;;;9.32;2.63;;;12.90;99.90;;;;;;5072624;28;20029;-57
2023/09/27 02:38:43;;;;;;;9.52;1.98;;;14.50;99.90;;;;;;5073566;28;20016;-49
2023/09/27 02:41:09;;;;;;;9.38;2.67;;;14.80;99.90;;;;;;5073857;28;20456;-59
2023/09/27 02:43:34;;;;;;;11.32;2.78;;;14.50;99.90;;;;;;5073690;28;20067;-51
2023/09/27 02:46:00;;;;;;;6.25;2.55;;;14.40;99.90;;;;;;5073898;28;20020;-53
2023/09/27 02:48:26;;;;;;;6.47;2.00;;;15.40;99.90;;;;;;5073235;28;20030;-56
2023/09/27 02:50:52;;;;;;;6.72;2.25;;;;;;;;;;5073609;28;20029;-56
2023/09/27 02:53:18;;;;;;;9.02;2.20;;;14.30;99.90;;;;;;5073334;28;20017;-56
2023/09/27 02:55:44;;;;;;;8.82;2.08;;;14.30;99.90;;;;;;5073760;28;20029;-57
2023/09/27 02:58:09;;;;;;;8.13;2.03;;;13.50;99.90;;;;;;5073528;28;20404;-58
2023/09/27 03:00:36;;;;;;;9.48;2.78;;;14.30;99.90;;;;;;5073043;28;20049;-52
2023/09/27 03:03:03;;;;;;;8.52;2.22;;;15.00;99.90;;;;;;5073398;28;20024;-55
2023/09/27 03:05:33;;;;;;;7.82;2.30;;;14.00;99.90;;;;;;5073197;28;20019;-59
2023/09/27 03:08:00;;;;;;;5.32;2.05;;;14.30;99.90;;;;;;5073219;28;20393;-49
2023/09/27 03:10:26;;;;;;;8.45;1.90;;;14.40;99.90;;;;;;5073173;28;20031;-42
2023/09/27 03:12:54;;;;;;;7.22;2.35;;;14.80;99.90;;;;;;5073253;28;20029;-51
2023/09/27 03:15:19;;;;;;;15.63;2.70;;;14.50;99.90;;;;;;5073305;28;20039;-51
2023/09/27 03:17:47;;;;;;;5.35;2.10;;;17.20;99.90;;;;;;5073256;28;20099;-62
2023/09/27 03:20:19;;;;;;;8.95;2.80;;;16.20;99.90;;;;;;5073081;28;20031;-57
2023/09/27 03:22:48;;;;;;;14.05;2.42;;;14.60;99.90;;;;;;5071709;28;20139;-51
2023/09/27 03:25:15;;;;;;;5.68;2.05;;;14.60;99.90;;;;;;5071577;28;20178;-56
2023/09/27 03:27:40;;;;;;;10.35;2.17;;;14.60;99.90;;;;;;5072972;28;20025;-54
2023/09/27 03:30:07;;;;;;;6.43;1.98;;;14.60;99.90;;;;;;5072837;28;20078;-43
2023/09/27 03:32:33;;;;;;;5.38;2.42;;;13.70;99.90;;;;;;5072772;28;20481;-52
2023/09/27 03:34:59;;;;;;;8.27;2.58;;;14.60;99.90;;;;;;5072801;28;20036;-57
2023/09/27 03:37:25;;;;;;;6.68;2.45;;;14.70;99.90;;;;;;5072781;28;20469;-61
2023/09/27 03:39:55;;;;;;;7.95;2.72;;;14.70;99.90;;;;;;5072597;28;20028;-49
2023/09/27 03:42:21;;;;;;;7.90;2.35;;;14.80;99.90;;;;;;5072711;28;20047;-41
2023/09/27 03:44:48;;;;;;;7.45;2.10;;;14.70;99.90;;;;;;5072507;28;20048;-42
2023/09/27 03:47:15;;;;;;;5.35;1.70;;;14.80;99.90;;;;;;5072290;28;20052;-39
2023/09/27 03:49:41;;;;;;;8.95;1.92;;;14.90;99.90;;;;;;5072384;28;20012;-55
2023/09/27 03:52:08;;;;;;;7.57;2.67;;;14.80;99.90;;;;;;5072578;28;20025;-53
2023/09/27 03:54:33;;;;;;;10.23;2.67;;;14.70;99.90;;;;;;5072493;28;20067;-55
2023/09/27 03:56:59;;;;;;;7.65;2.05;;;14.90;99.90;;;;;;5058277;28;20055;-50
2023/09/27 03:59:25;;;;;;;8.52;2.55;;;14.80;99.90;;;;;;5072322;28;20025;-46
2023/09/27 04:01:51;;;;;;;6.78;1.98;;;14.60;99.90;;;;;;5071882;28;20048;-56
2023/09/27 04:04:17;;;;;;;7.25;1.92;;;14.90;99.90;;;;;;5072559;28;20047;-62
2023/09/27 04:06:43;;;;;;;6.43;2.13;;;14.90;99.90;;;;;;5072012;28;20086;-43
2023/09/27 04:09:09;;;;;;;5.15;1.92;;;14.90;99.90;;;;;;5072120;28;20032;-58
2023/09/27 04:11:35;;;;;;;8.15;2.25;;;15.00;99.90;;;;;;5072008;28;20038;-54
2023/09/27 04:14:01;;;;;;;8.88;2.53;;;17.60;99.90;;;;;;5072177;28;20501;-48
2023/09/27 04:16:30;;;;;;;7.95;2.70;;;16.30;99.90;;;;;;5071937;28;20024;-60
2023/09/27 04:18:58;;;;;;;;;;;15.00;99.90;;;;;;5072285;28;20027;-55
2023/09/27 04:21:25;;;;;;;6.07;2.10;;;15.00;99.90;;;;;;5071978;28;19912;-49
2023/09/27 04:23:55;;;;;;;6.40;2.05;;;15.80;99.90;;;;;;5071665;28;20013;-45
2023/09/27 04:26:23;;;;;;;6.05;1.83;;;15.00;99.90;;;;;;5072232;28;20078;-49
2023/09/27 04:28:53;;;;;;;9.48;1.90;;;15.00;99.90;;;;;;5071531;28;20554;-58
2023/09/27 04:31:19;;;;;;;4.75;1.80;;;17.50;99.90;;;;;;5071857;28;20032;-55
2023/09/27 04:33:47;;;;;;;9.80;2.25;;;15.10;99.90;;;;;;5071418;28;20029;-41
2023/09/27 04:36:15;;;;;;;7.55;2.00;;;15.00;99.90;;;;;;5070874;28;20020;-41
2023/09/27 04:38:44;;;;;;;13.05;2.40;;;15.10;99.90;;;;;;5071539;28;20017;-40
2023/09/27 04:41:11;;;;;;;5.85;1.90;;;15.10;99.90;;;;;;5071208;28;20036;-40
2023/09/27 04:43:36;;;;;;;5.32;1.90;;;15.10;99.90;;;;;;5071094;28;20526;-53
2023/09/27 04:46:02;;;;;;;7.55;2.05;;;15.00;99.90;;;;;;5065699;28;20072;-57
2023/09/27 04:48:29;;;;;;;6.80;1.90;;;15.00;99.90;;;;;;5059886;28;20092;-47
2023/09/27 04:50:57;;;;;;;8.63;2.35;;;15.00;99.90;;;;;;5065641;28;20104;-53
2023/09/27 04:53:23;;;;;;;7.68;1.90;;;15.00;99.90;;;;;;5061196;28;20013;-42
2023/09/27 04:55:49;;;;;;;9.40;1.77;;;15.50;99.90;;;;;;5064051;28;20027;-60
2023/09/27 04:58:15;;;;;;;7.63;1.65;;;15.10;99.90;;;;;;5063329;28;20036;-50
2023/09/27 05:00:40;;;;;;;6.25;1.88;;;14.30;99.90;;;;;;5061783;28;20056;-58
2023/09/27 05:03:07;;;;;;;8.77;2.20;;;15.20;99.90;;;;;;5065059;28;20500;-55
2023/09/27 05:05:32;;;;;;;6.47;2.13;;;15.30;99.90;;;;;;5060398;28;20139;-49
2023/09/27 05:07:58;;;;;;;13.90;2.15;;;14.80;99.90;;;;;;5065292;28;20086;-50
2023/09/27 05:10:24;;;;;;;11.18;2.40;;;14.00;99.90;;;;;;5060682;28;20029;-54
2023/09/27 05:12:50;;;;;;;5.03;1.95;;;15.40;99.90;;;;;;5064334;28;20024;-54
2023/09/27 05:15:16;;;;;;;11.68;2.20;;;15.70;99.90;;;;;;5062993;28;20495;-55
2023/09/27 05:17:41;;;;;;;6.47;1.80;;;15.50;99.90;;;;;;5062393;28;20508;-51
2023/09/27 05:20:10;;;;;;;4.88;1.52;;;15.50;99.90;;;;;;5065158;28;20048;-57
2023/09/27 05:22:40;;;;;;;8.95;2.22;;;15.50;99.90;;;;;;5061389;28;20044;-46
2023/09/27 05:25:06;;;;;;;;;;;15.60;99.90;;;;;;5066106;28;20082;-49
2023/09/27 05:27:31;;;;;;;10.43;2.15;;;15.60;99.90;;;;;;5060495;28;19905;-45
2023/09/27 05:29:57;;;;;;;11.20;2.17;;;15.60;99.90;;;;;;5065622;28;20041;-54
2023/09/27 05:32:23;;;;;;;3.83;1.45;;;15.60;99.90;;;;;;5062059;28;20469;-54
2023/09/27 05:34:50;;;;;;;8.02;1.98;;;15.60;99.90;;;;;;5063857;28;20029;-50
2023/09/27 05:37:16;;;;;;;6.35;2.03;;;14.80;99.90;;;;;;5063726;28;20369;-55
2023/09/27 05:39:42;;;;;;;11.13;1.98;;;15.70;99.90;;;;;;5061725;28;20096;-53
2023/09/27 05:42:07;;;;;;;8.48;2.13;;;16.20;99.90;;;;;;5065163;28;20370;-55
2023/09/27 05:44:33;;;;;;;14.43;1.95;;;15.70;99.90;;;;;;5066473;28;20020;-55
2023/09/27 05:46:58;;;;;;;8.63;1.80;;;15.70;99.90;;;;;;5070055;28;20029;-44
2023/09/27 05:49:25;;;;;;;13.20;2.10;;;15.70;99.90;;;;;;5069781;28;20025;-52
2023/09/27 05:51:52;;;;;;;11.45;2.47;;;15.70;99.90;;;;;;5070182;28;20024;-59
2023/09/27 05:54:21;;;;;;;9.70;2.08;;;14.80;99.90;;;;;;5070146;28;20013;-47
2023/09/27 05:56:51;;;;;;;8.23;2.58;;;15.70;99.90;;;;;;5070072;28;20019;-57
2023/09/27 05:59:17;;;;;;;6.88;1.90;;;14.80;99.90;;;;;;5070161;28;20073;-53
2023/09/27 06:01:44;;;;;;;7.35;1.98;;;15.70;99.90;;;;;;5069979;28;20354;-48
2023/09/27 06:04:10;;;;;;;9.63;2.75;;;16.20;99.90;;;;;;5070210;28;20552;-57
2023/09/27 06:06:37;;;;;;;11.73;2.75;;;16.40;99.90;;;;;;5069904;28;20067;-44
2023/09/27 06:09:09;;;;;;;13.48;3.45;;;15.80;99.90;;;;;;5070123;28;20519;-53
2023/09/27 06:11:35;;;;;;;15.23;3.45;;;15.80;99.90;;;;;;5069872;28;20021;-50
2023/09/27 06:14:00;;;;;;;12.70;2.53;;;13.30;99.90;;;;;;5070307;28;20024;-49
2023/09/27 06:16:26;;;;;;;7.65;2.67;;;14.20;99.90;;;;;;5070129;28;20392;-55
2023/09/27 06:18:52;;;;;;;8.15;2.92;;;15.70;99.90;;;;;;5069999;28;20484;-46
2023/09/27 06:21:17;;;;;;;19.73;3.38;;;16.50;99.90;;;;;;5069775;28;20170;-55
2023/09/27 06:23:43;;;;;;;8.65;2.67;;;16.20;99.90;;;;;;5069849;28;20043;-57
2023/09/27 06:26:09;;;;;;;9.75;3.15;;;16.00;99.90;;;;;;5069998;28;20060;-52
2023/09/27 06:28:37;;;;;;;9.20;4.20;;;15.50;99.90;;;;;;5070092;28;20103;-45
2023/09/27 06:31:06;;;;;;;10.60;2.78;;;15.70;99.90;;;;;;5070129;28;20020;-56
2023/09/27 06:33:45;;;;;;;14.75;4.15;;;16.00;99.90;;;;;;5069982;28;20774;-58
2023/09/27 06:36:11;;;;;;;9.98;3.83;;;;;;;;;;5056546;28;20064;-56
2023/09/27 06:38:37;;;;;;;15.50;4.00;;;15.80;99.90;;;;;;5069913;28;20036;-55
2023/09/27 06:41:03;;;;;;;12.52;3.90;;;16.60;99.90;;;;;;5069732;28;20041;-57
2023/09/27 06:43:31;;;;;;;14.05;4.50;;;16.20;99.90;;;;;;5069894;28;20024;-54
2023/09/27 06:45:58;;;;;;;11.63;3.45;;;13.30;99.90;;;;;;5069649;28;20028;-51
2023/09/27 06:48:24;;;;;;;9.20;3.05;;;16.70;99.90;;;;;;5064209;28;20029;-52
2023/09/27 06:50:49;;;;;;;9.82;3.17;;;17.00;99.90;;;;;;5064722;28;20016;-56
2023/09/27 06:53:16;;;;;;;9.25;2.78;;;17.40;99.90;;;;;;5061407;28;20393;-46
2023/09/27 06:55:44;;;;;;;9.77;3.10;;;16.30;99.90;;;;;;5064432;28;20473;-49
2023/09/27 06:58:09;;;;;;;9.05;2.47;;;16.40;99.90;;;;;;5064634;28;20089;-53
2023/09/27 07:00:35;;;;;;;13.20;2.80;;;16.50;99.90;;;;;;5072102;28;20111;-55
2023/09/27 07:03:01;;;;;;;11.32;2.85;;;16.60;99.90;;;;;;5072121;28;20040;-45
2023/09/27 07:05:26;;;;;;;10.93;2.97;;;18.70;99.90;;;;;;5059127;28;20017;-55
2023/09/27 07:07:53;;;;;;;14.48;2.90;;;16.70;99.90;;;;;;5063712;28;20501;-60
2023/09/27 07:10:20;;;;;;;10.95;4.20;;;16.80;99.90;;;;;;5069509;28;20041;-58
2023/09/27 07:12:46;;;;;;;11.93;2.47;;;16.90;99.90;;;;;;5071338;28;20032;-49
2023/09/27 07:15:13;;;;;;;10.25;2.58;;;17.10;99.90;;;;;;5069404;28;20016;-56
2023/09/27 07:17:40;;;;;;;10.63;2.35;;;17.10;99.90;;;;;;5071340;28;20017;-60
2023/09/27 07:20:16;;;;;;;9.15;2.72;;;17.00;99.90;;;;;;5071134;28;20449;-56
2023/09/27 07:22:42;;;;;;;8.88;2.83;;;17.10;99.90;;;;;;5058692;28;20443;-52
2023/09/27 07:25:12;;;;;;;12.05;2.75;;;17.10;99.90;;;;;;5071310;28;20112;-48
2023/09/27 07:27:40;;;;;;;5.72;2.65;;;18.20;99.90;;;;;;5071140;28;20392;-51
2023/09/27 07:30:10;;;;;;;9.82;3.22;;;19.40;99.90;;;;;;5071156;28;20159;-51
2023/09/27 07:32:37;;;;;;;19.27;4.35;;;17.20;99.90;;;;;;5069406;28;20100;-51
2023/09/27 07:35:05;;;;;;;6.20;2.55;;;17.30;99.90;;;;;;5071196;28;20028;-49
2023/09/27 07:37:33;;;;;;;9.80;3.23;;;16.40;99.90;;;;;;5069267;28;20020;-49
2023/09/27 07:39:59;;;;;;;11.32;2.92;;;17.40;99.90;;;;;;5064612;28;20253;-48
2023/09/27 07:42:24;;;;;;;10.07;3.08;;;17.30;99.90;;;;;;5072263;28;20054;-52
2023/09/27 07:44:50;;;;;;;6.32;2.55;;;17.30;99.90;;;;;;5071845;28;20028;-51
2023/09/27 07:47:16;;;;;;;11.43;3.00;;;17.30;99.90;;;;;;5072668;28;20024;-61
2023/09/27 07:49:41;;;;;;;12.65;3.38;;;17.30;99.90;;;;;;5072500;28;20492;-53
2023/09/27 07:52:07;;;;;;;8.45;2.95;;;17.40;99.90;;;;;;5072322;28;20024;-46
2023/09/27 07:54:33;;;;;;;15.98;2.50;;;17.40;99.90;;;;;;5072565;28;20162;-56
2023/09/27 07:57:00;;;;;;;13.07;2.42;;;18.30;99.90;;;;;;5071809;28;20061;-51
2023/09/27 07:59:25;;;;;;;13.32;3.50;;;17.40;99.90;;;;;;5070852;28;20546;-55
2023/09/27 08:01:52;;;;;;;12.18;3.13;;;17.50;99.90;;;;;;5067112;28;20041;-54
2023/09/27 08:04:19;;;;;;;17.20;3.38;;;17.40;99.90;;;;;;5068249;28;20361;-54
2023/09/27 08:06:46;;;;;;;4.28;2.05;;;17.50;99.90;;;;;;5067440;28;20024;-53
2023/09/27 08:09:14;;;;;;;9.60;3.00;;;17.50;99.90;;;;;;5059055;28;20063;-57
2023/09/27 08:11:39;;;;;;;12.13;2.72;;;17.40;99.90;;;;;;5067926;28;20063;-54
2023/09/27 08:14:05;;;;;;;6.70;2.90;;;17.50;99.90;;;;;;5068064;28;20429;-56
2023/09/27 08:16:31;;;;;;;7.75;2.20;;;17.60;99.90;;;;;;5069685;28;20442;-64
2023/09/27 08:18:56;;;;;;;5.40;1.77;;;17.60;99.90;;;;;;5066992;28;20030;-51
2023/09/27 08:21:22;;;;;;;18.80;2.53;;;17.60;99.90;;;;;;5069589;28;20032;-57
2023/09/27 08:23:48;;;;;;;7.90;2.10;;;18.50;99.90;;;;;;5066915;28;20074;-56
2023/09/27 08:26:13;;;;;;;7.53;1.60;;;17.60;99.90;;;;;;5069386;28;20094;-58
2023/09/27 08:28:39;;;;;;;4.88;2.00;;;17.60;99.90;;;;;;5067285;28;20032;-50
2023/09/27 08:31:05;;;;;;;6.95;1.73;;;17.70;99.90;;;;;;5069849;28;20023;-60
2023/09/27 08:33:31;;;;;;;7.35;1.83;;;17.70;99.90;;;;;;5065014;28;20103;-49
2023/09/27 08:35:57;;;;;;;6.88;1.65;;;17.70;99.90;;;;;;5060331;28;20036;-55
2023/09/27 08:38:22;;;;;;;5.97;1.95;;;17.50;99.90;;;;;;5063144;28;20013;-39
2023/09/27 08:40:48;;;;;;;6.00;1.75;;;18.30;99.90;;;;;;5061862;28;20021;-42
2023/09/27 08:43:17;;;;;;;11.02;2.20;;;19.10;99.90;;;;;;5063382;28;20024;-42
2023/09/27 08:45:45;;;;;;;8.05;2.35;;;16.70;99.90;;;;;;5071099;28;20029;-40
2023/09/27 08:48:16;;;;;;;7.13;2.13;;;17.80;99.90;;;;;;5071043;28;20028;-54
2023/09/27 08:50:42;;;;;;;7.10;2.35;;;17.90;99.90;;;;;;5071365;28;20036;-48
2023/09/27 08:53:10;;;;;;;11.70;2.55;;;18.70;99.90;;;;;;5071000;28;20017;-45
2023/09/27 08:55:38;;;;;;;10.55;3.00;;;18.10;99.90;;;;;;5060829;28;20495;-54
2023/09/27 08:58:06;;;;;;;8.52;2.60;;;18.20;99.90;;;;;;5066021;28;20103;-58
2023/09/27 09:00:32;;;;;;;9.03;2.87;;;18.20;99.90;;;;;;5071017;28;20127;-49
2023/09/27 09:03:00;;;;;;;12.65;2.50;;;18.60;99.90;;;;;;5070616;28;20489;-55
2023/09/27 09:05:27;;;;;;;5.80;1.77;;;18.70;99.90;;;;;;5066264;28;20021;-55
2023/09/27 09:07:55;;;;;;;6.00;1.65;;;19.00;99.90;;;;;;5064180;28;20492;-60
2023/09/27 09:10:22;;;;;;;5.28;1.77;;;19.30;99.90;;;;;;5057410;28;20151;-54
2023/09/27 09:12:49;;;;;;;6.75;1.92;;;18.90;99.90;;;;;;5062386;28;20025;-47
2023/09/27 09:15:35;;;;;;;9.10;1.95;;;17.20;99.90;;;;;;5063761;28;20499;-52
2023/09/27 09:18:06;;;;;;;5.45;1.70;;;18.20;99.90;;;;;;5058953;28;20025;-59
2023/09/27 09:20:49;;;;;;;4.15;1.38;;;20.00;99.90;;;;;;5064130;28;20480;-59
2023/09/27 09:23:33;;;;;;;4.53;1.30;;;19.00;99.90;;;;;;5067538;28;20033;-60
2023/09/27 09:26:06;;;;;;;4.72;1.30;;;19.20;99.90;;;;;;5065287;28;20017;-58
2023/09/27 09:28:32;;;;;;;2.53;1.30;;;19.30;99.90;;;;;;5067659;28;20023;-51
2023/09/27 09:30:58;;;;;;;3.30;1.48;;;19.40;99.90;;;;;;5064067;28;20109;-47
2023/09/27 09:33:36;;;;;;;4.78;1.10;;;20.00;99.90;;;;;;5067207;28;20376;-48
2023/09/27 09:36:02;;;;;;;5.15;1.40;;;20.80;99.90;;;;;;5058826;28;20130;-50
2023/09/27 09:38:30;;;;;;;2.90;1.33;;;21.00;99.90;;;;;;5063660;28;20472;-54
2023/09/27 09:40:57;;;;;;;5.35;1.55;;;20.30;99.90;;;;;;5060147;28;20394;-60
2023/09/27 09:43:35;;;;;;;3.33;1.13;;;20.40;99.90;;;;;;5064320;28;20021;-55
2023/09/27 09:46:10;;;;;;;2.72;1.55;;;19.90;99.90;;;;;;5070928;28;20021;-57
2023/09/27 09:48:38;;;;;;;4.07;1.30;;;21.80;99.90;;;;;;5057904;28;20085;-59
2023/09/27 09:51:07;;;;;;;3.92;1.33;;;19.70;99.90;;;;;;5070761;28;20020;-43
2023/09/27 09:53:40;;;;;;;7.97;1.60;;;19.60;99.90;;;;;;5070426;28;20021;-44
2023/09/27 09:56:11;;;;;;;4.90;1.30;;;19.40;99.90;;;;;;5070583;28;20033;-53
2023/09/27 09:59:07;;;;;;;4.40;1.92;;;19.30;99.90;;;;;;5070731;28;20043;-50
2023/09/27 10:01:37;;;;;;;5.15;1.77;;;19.20;99.90;;;;;;5069251;28;20066;-58
2023/09/27 10:04:05;;;;;;;5.15;1.20;;;19.20;99.90;;;;;;5070495;28;20078;-59
2023/09/27 10:06:31;;;;;;;5.20;1.57;;;21.50;99.90;;;;;;5070287;28;20072;-53
2023/09/27 10:09:01;;;;;;;4.47;1.67;;;19.70;99.90;;;;;;5070398;28;20052;-56
2023/09/27 10:11:26;;;;;;;;;;;20.00;99.90;;;;;;5070656;28;20031;-45
2023/09/27 10:13:53;;;;;;;5.70;1.23;;;20.50;99.90;;;;;;5070370;28;20009;-41
2023/09/27 10:16:22;;;;;;;5.57;1.48;;;21.50;99.90;;;;;;5070411;28;20027;-54
2023/09/27 10:18:48;;;;;;;4.85;1.60;;;22.10;99.90;;;;;;5070304;28;20031;-49
2023/09/27 10:21:15;;;;;;;2.58;1.20;;;22.90;99.90;;;;;;5068072;28;20373;-53
2023/09/27 10:23:46;;;;;;;2.95;1.30;;;23.10;99.90;;;;;;5061680;28;20041;-57
2023/09/27 10:26:33;;;;;;;4.57;1.27;;;23.10;99.90;;;;;;5059645;28;20025;-49
2023/09/27 10:29:06;;;;;;;5.00;1.30;;;23.30;99.90;;;;;;5060151;28;20025;-62
2023/09/27 10:31:33;;;;;;;3.30;1.23;;;23.30;99.90;;;;;;5061567;28;20484;-57
2023/09/27 10:33:59;;;;;;;3.72;1.40;;;22.60;99.90;;;;;;5061699;28;20021;-59
2023/09/27 10:36:24;;;;;;;2.28;1.20;;;23.50;99.90;;;;;;5066728;28;20017;-52
2023/09/27 10:38:50;;;;;;;4.10;1.35;;;24.00;99.90;;;;;;5068864;28;20025;-59
2023/09/27 10:41:34;;;;;;;5.00;1.40;;;24.00;99.90;;;;;;5062608;28;20481;-62
2023/09/27 10:44:02;;;;;;;4.40;1.40;;;24.10;99.90;;;;;;5066625;28;20036;-53
2023/09/27 10:46:39;;;;;;;3.53;1.45;;;23.90;99.90;;;;;;5072415;28;20437;-58
2023/09/27 10:49:04;;;;;;;3.92;1.40;;;24.10;99.90;;;;;;5074032;28;20069;-44
2023/09/27 10:51:30;;;;;;;6.65;1.60;;;24.50;99.90;;;;;;5072565;28;20107;-49
2023/09/27 10:53:56;;;;;;;4.00;1.48;;;24.30;99.90;;;;;;5074003;28;20020;-54
2023/09/27 10:56:21;;;;;;;3.20;1.40;;;24.90;99.90;;;;;;5073427;28;20532;-51
2023/09/27 10:58:49;;;;;;;2.72;1.30;;;23.50;99.90;;;;;;5073638;28;20033;-55
2023/09/27 11:01:22;;;;;;;5.97;2.55;;;23.50;99.90;;;;;;5073324;28;20044;-54
2023/09/27 11:04:12;;;;;;;8.93;2.65;;;22.90;99.90;;;;;;5073811;28;20024;-54
2023/09/27 11:06:37;;;;;;;5.00;2.30;;;22.80;99.90;;;;;;5073111;28;20498;-57
2023/09/27 11:09:07;;;;;;;8.30;2.47;;;22.80;99.90;;;;;;5066260;28;20116;-53
2023/09/27 11:11:36;;;;;;;8.45;3.80;;;23.40;99.90;;;;;;5060157;28;20527;-51
2023/09/27 11:14:02;;;;;;;7.10;3.58;;;23.90;99.90;;;;;;5070274;28;20503;-51
2023/09/27 11:16:29;;;;;;;8.85;3.80;;;24.20;99.90;;;;;;5062565;28;20111;-44
2023/09/27 11:18:57;;;;;;;8.40;3.47;;;24.30;99.90;;;;;;5058276;28;20017;-55
2023/09/27 11:21:26;;;;;;;11.70;3.97;;;24.60;99.90;;;;;;5056924;28;20485;-53
2023/09/27 11:24:02;;;;;;;8.85;4.25;;;26.00;99.90;;;;;;5059623;28;20040;-48
2023/09/27 11:26:31;;;;;;;11.40;3.22;;;25.60;99.90;;;;;;5059168;28;20439;-44
2023/09/27 11:28:57;;;;;;;2.78;1.63;;;25.80;99.90;;;;;;5059445;28;20029;-51
2023/09/27 11:31:34;;;;;;;4.00;2.15;;;25.90;99.90;;;;;;5060740;28;20040;-42
2023/09/27 11:34:19;;;;;;;4.07;1.65;;;26.00;99.90;;;;;;5064994;28;20048;-42
2023/09/27 11:36:55;;;;;;;6.38;1.90;;;25.80;99.90;;;;;;5065705;28;20060;-40
2023/09/27 11:39:49;;;;;;;6.20;2.70;;;25.70;99.90;;;;;;5062015;28;20040;-55
2023/09/27 11:42:26;;;;;;;4.00;1.73;;;25.80;99.90;;;;;;5060515;28;20499;-43
2023/09/27 11:45:04;;;;;;;2.95;1.55;;;25.50;99.90;;;;;;5070862;28;20074;-45
2023/09/27 11:47:46;;;;;;;3.80;1.13;;;25.00;99.90;;;;;;5071968;28;20028;-44
2023/09/27 11:50:13;;;;;;;3.55;1.17;;;26.20;99.90;;;;;;5071957;28;20036;-40
2023/09/27 11:52:39;;;;;;;3.80;1.42;;;25.20;99.90;;;;;;5071329;28;20800;-42
2023/09/27 11:55:06;;;;;;;2.20;1.02;;;25.00;99.90;;;;;;5071554;28;20107;-51
2023/09/27 11:57:31;;;;;;;3.25;1.67;;;24.00;99.90;;;;;;5072323;28;20117;-42
2023/09/27 11:59:57;;;;;;;6.28;1.38;;;23.70;99.90;;;;;;5070375;28;20701;-41
2023/09/27 12:02:23;;;;;;;5.47;1.60;;;23.20;99.90;;;;;;5068568;28;20063;-56
2023/09/27 12:04:48;;;;;;;6.30;1.33;;;23.00;99.90;;;;;;5069543;28;20389;-49
2023/09/27 12:07:14;;;;;;;3.45;1.27;;;22.90;99.90;;;;;;5072282;28;20051;-54
2023/09/27 12:09:40;;;;;;;3.35;1.10;;;22.90;99.90;;;;;;5072351;28;20030;-47
2023/09/27 12:12:06;;;;;;;3.42;1.20;;;22.90;99.90;;;;;;5072340;28;20025;-57
2023/09/27 12:14:32;;;;;;;3.78;1.27;;;22.90;99.90;;;;;;5072086;28;20024;-54
2023/09/27 12:16:57;;;;;;;5.03;1.10;;;23.10;99.90;;;;;;5072473;28;20028;-47
2023/09/27 12:19:23;;;;;;;5.75;1.42;;;23.00;99.90;;;;;;5072297;28;20389;-41
2023/09/27 12:21:49;;;;;;;3.80;1.20;;;22.90;99.90;;;;;;5072002;28;20040;-44
2023/09/27 12:24:14;;;;;;;3.42;1.15;;;22.70;99.90;;;;;;5072503;28;20024;-46
2023/09/27 12:26:41;;;;;;;3.47;1.50;;;22.50;99.90;;;;;;5072171;28;20035;-44
2023/09/27 12:29:07;;;;;;;8.60;1.95;;;22.30;99.90;;;;;;5072131;28;20028;-43
2023/09/27 12:31:33;;;;;;;6.75;1.23;;;22.10;99.90;;;;;;5072077;28;20128;-44
2023/09/27 12:33:59;;;;;;;4.68;1.38;;;21.90;99.90;;;;;;5071750;28;20462;-44
2023/09/27 12:36:25;;;;;;;4.93;1.48;;;21.80;99.90;;;;;;5071134;28;20031;-58
2023/09/27 12:38:50;;;;;;;5.72;2.10;;;21.60;99.90;;;;;;5055108;28;20017;-46
2023/09/27 12:41:17;;;;;;;2.78;1.42;;;21.60;99.90;;;;;;5056259;28;20650;-50
2023/09/27 12:43:43;;;;;;;3.88;1.45;;;21.50;99.90;;;;;;5061737;28;20440;-49
2023/09/27 12:46:09;;;;;;;4.47;1.83;;;21.50;99.90;;;;;;5070852;28;20021;-52
2023/09/27 12:48:35;;;;;;;6.82;3.20;;;21.40;99.90;;;;;;5040117;28;20070;-43